createdAt,value
2022-08-22T00:02:23.916Z,606.97
2022-08-22T00:02:49.934Z,609.75
2022-08-22T00:02:54.358Z,547.05
2022-08-22T00:02:56.462Z,586.83
2022-08-22T00:02:58.275Z,449.17
2022-08-22T00:02:59.810Z,511.52
2022-08-22T00:02:59.904Z,536.05
2022-08-22T00:03:01.583Z,416.02
2022-08-22T00:05:10.698Z,622.55
2022-08-22T00:07:58.411Z,641.00
2022-08-22T00:10:51.616Z,622.67
2022-08-22T00:13:45.687Z,662.33
2022-08-22T00:16:29.119Z,665.45
2022-08-22T00:19:16.550Z,683.60
2022-08-22T00:22:13.406Z,669.17
2022-08-22T00:24:46.808Z,645.72
2022-08-22T00:27:21.720Z,654.42
2022-08-22T00:29:58.720Z,619.75
2022-08-22T00:32:42.834Z,659.25
2022-08-22T00:38:07.011Z,656.25
2022-08-22T00:41:04.994Z,689.95
2022-08-22T00:43:50.019Z,688.00
2022-08-22T00:46:27.463Z,675.78
2022-08-22T00:49:23.524Z,689.55
2022-08-22T00:52:16.316Z,686.42
2022-08-22T00:55:20.371Z,689.15
2022-08-22T00:58:22.889Z,660.20
2022-08-22T01:00:56.988Z,661.30
2022-08-22T01:03:44.639Z,658.63
2022-08-22T01:06:48.986Z,663.90
2022-08-22T01:09:33.902Z,682.45
2022-08-22T01:12:28.403Z,654.22
2022-08-22T01:17:59.493Z,697.42
2022-08-22T01:20:47.601Z,708.20
2022-08-22T01:23:26.537Z,708.47
2022-08-22T01:26:11.922Z,709.53
2022-08-22T01:29:16.495Z,707.78
2022-08-22T01:31:58.825Z,682.35
2022-08-22T01:35:09.126Z,660.30
2022-08-22T01:38:02.512Z,666.78
2022-08-22T01:40:53.450Z,717.97
2022-08-22T01:43:58.650Z,703.78
2022-08-22T01:46:47.237Z,704.30
2022-08-22T01:49:29.508Z,675.85
2022-08-22T01:52:05.418Z,690.90
2022-08-22T01:54:55.889Z,718.00
2022-08-22T01:57:24.200Z,711.30
2022-08-22T01:59:55.264Z,728.70
2022-08-22T02:02:40.157Z,684.22
2022-08-22T02:05:37.895Z,729.15
2022-08-22T02:08:44.690Z,718.42
2022-08-22T02:11:28.611Z,761.47
2022-08-22T02:14:21.521Z,676.25
2022-08-22T02:16:55.926Z,689.05
2022-08-22T02:19:38.704Z,712.78
2022-08-22T02:22:22.761Z,673.03
2022-08-22T02:25:10.691Z,682.22
2022-08-22T02:27:53.895Z,655.40
2022-08-22T02:30:42.859Z,676.85
2022-08-22T02:33:21.333Z,697.80
2022-08-22T02:35:58.811Z,726.58
2022-08-22T02:38:39.173Z,687.33
2022-08-22T02:41:35.049Z,691.83
2022-08-22T02:44:20.972Z,677.35
2022-08-22T02:47:09.164Z,706.42
2022-08-22T02:50:18.444Z,711.97
2022-08-22T02:52:57.238Z,724.67
2022-08-22T02:55:54.963Z,695.83
2022-08-22T02:58:59.194Z,746.40
2022-08-22T03:01:29.873Z,753.95
2022-08-22T03:04:18.020Z,738.30
2022-08-22T03:06:59.200Z,706.00
2022-08-22T03:09:33.454Z,723.90
2022-08-22T03:12:28.943Z,731.75
2022-08-22T03:15:06.765Z,691.92
2022-08-22T03:17:40.363Z,724.13
2022-08-22T03:20:21.401Z,728.05
2022-08-22T03:23:00.590Z,719.60
2022-08-22T03:25:38.047Z,677.05
2022-08-22T03:28:22.023Z,728.55
2022-08-22T03:30:59.977Z,700.78
2022-08-22T03:33:31.244Z,709.47
2022-08-22T03:36:09.826Z,747.22
2022-08-22T03:38:36.733Z,691.45
2022-08-22T03:41:19.114Z,731.15
2022-08-22T03:44:32.308Z,763.17
2022-08-22T03:47:28.979Z,750.55
2022-08-22T03:50:34.064Z,764.05
2022-08-22T03:53:15.220Z,719.83
2022-08-22T03:56:13.925Z,740.53
2022-08-22T03:58:54.537Z,738.72
2022-08-22T04:01:59.084Z,767.15
2022-08-22T04:04:48.281Z,772.20
2022-08-22T04:07:31.582Z,772.05
2022-08-22T04:10:22.612Z,753.47
2022-08-22T04:13:27.624Z,715.25
2022-08-22T04:16:14.084Z,794.33
2022-08-22T04:18:52.977Z,731.13
2022-08-22T04:21:24.041Z,751.05
2022-08-22T04:24:12.865Z,760.72
2022-08-22T04:27:08.979Z,752.20
2022-08-22T04:29:42.731Z,748.47
2022-08-22T04:32:27.209Z,773.05
2022-08-22T04:35:06.931Z,769.72
2022-08-22T04:37:46.372Z,781.58
2022-08-22T04:40:28.938Z,774.47
2022-08-22T04:43:10.769Z,750.97
2022-08-22T04:45:54.018Z,749.50
2022-08-22T04:48:33.686Z,736.83
2022-08-22T04:51:30.857Z,698.20
2022-08-22T04:54:25.906Z,724.10
2022-08-22T04:57:21.143Z,709.58
2022-08-22T04:59:49.814Z,701.13
2022-08-22T05:02:24.508Z,650.65
2022-08-22T05:05:04.920Z,682.97
2022-08-22T05:07:49.687Z,665.53
2022-08-22T05:10:41.586Z,659.15
2022-08-22T05:13:13.277Z,631.80
2022-08-22T05:15:45.827Z,589.08
2022-08-22T05:18:29.596Z,578.72
2022-08-22T05:23:35.331Z,522.80
2022-08-22T05:26:06.214Z,513.90
2022-08-22T05:28:40.041Z,480.67
2022-08-22T05:33:50.380Z,497.48
2022-08-22T05:36:25.214Z,469.38
2022-08-22T05:38:57.630Z,468.80
2022-08-22T05:41:28.884Z,391.58
2022-08-22T05:43:56.128Z,409.77
2022-08-22T05:47:02.464Z,382.98
2022-08-22T05:49:58.706Z,339.27
2022-08-22T05:52:56.419Z,335.33
2022-08-22T05:55:23.205Z,300.75
2022-08-22T05:58:02.980Z,298.67
2022-08-22T06:00:37.061Z,254.88
2022-08-22T06:03:36.739Z,240.07
2022-08-22T06:06:13.240Z,190.02
2022-08-22T06:08:44.225Z,147.18
2022-08-22T06:11:52.062Z,155.23
2022-08-22T06:14:43.433Z,149.13
2022-08-22T06:17:15.483Z,141.88
2022-08-22T06:19:47.678Z,130.60
2022-08-22T06:22:18.940Z,143.80
2022-08-22T06:24:47.710Z,144.35
2022-08-22T06:27:17.804Z,127.32
2022-08-22T06:29:50.867Z,129.73
2022-08-22T06:33:00.172Z,123.15
2022-08-22T06:35:55.180Z,115.45
2022-08-22T06:38:26.522Z,108.18
2022-08-22T06:40:54.747Z,111.55
2022-08-22T06:43:24.773Z,118.93
2022-08-22T06:45:53.036Z,99.88
2022-08-22T06:48:23.519Z,92.35
2022-08-22T06:50:56.084Z,86.47
2022-08-22T06:53:37.106Z,75.87
2022-08-22T06:56:07.894Z,75.25
2022-08-22T06:58:42.551Z,57.60
2022-08-22T07:01:16.943Z,52.85
2022-08-22T07:03:47.314Z,42.70
2022-08-22T07:06:17.072Z,43.30
2022-08-22T07:08:45.007Z,48.70
2022-08-22T07:11:29.318Z,45.92
2022-08-22T07:14:11.250Z,39.70
2022-08-22T07:16:49.827Z,36.78
2022-08-22T07:19:48.264Z,34.25
2022-08-22T07:22:16.692Z,36.28
2022-08-22T07:24:51.620Z,43.97
2022-08-22T07:27:40.455Z,37.30
2022-08-22T07:30:14.723Z,41.72
2022-08-22T07:33:18.973Z,27.23
2022-08-22T07:35:53.776Z,47.75
2022-08-22T07:38:43.176Z,43.47
2022-08-22T07:41:21.107Z,41.45
2022-08-22T07:44:16.260Z,43.20
2022-08-22T07:47:18.837Z,34.90
2022-08-22T07:50:04.464Z,41.38
2022-08-22T07:52:40.823Z,38.33
2022-08-22T07:55:26.259Z,40.53
2022-08-22T07:58:04.007Z,35.15
2022-08-22T08:00:32.922Z,35.35
2022-08-22T08:03:05.862Z,38.78
2022-08-22T08:05:37.061Z,32.60
2022-08-22T08:08:21.151Z,39.08
2022-08-22T08:10:52.160Z,37.60
2022-08-22T08:13:31.684Z,36.97
2022-08-22T08:15:59.596Z,34.30
2022-08-22T08:18:32.674Z,30.05
2022-08-22T08:21:21.955Z,35.63
2022-08-22T08:23:49.500Z,32.33
2022-08-22T08:26:24.419Z,32.95
2022-08-22T08:28:54.686Z,33.63
2022-08-22T08:31:38.040Z,36.22
2022-08-22T08:34:22.083Z,33.38
2022-08-22T08:37:03.111Z,34.20
2022-08-22T08:39:41.158Z,33.20
2022-08-22T08:42:55.958Z,35.53
2022-08-22T08:45:41.824Z,31.45
2022-08-22T08:48:40.246Z,26.45
2022-08-22T08:51:14.703Z,28.65
2022-08-22T08:53:53.881Z,34.13
2022-08-22T08:56:47.336Z,33.78
2022-08-22T08:59:44.869Z,36.38
2022-08-22T09:02:45.550Z,40.60
2022-08-22T09:05:48.263Z,38.90
2022-08-22T09:09:13.796Z,39.20
2022-08-22T09:15:11.761Z,42.28
2022-08-22T09:18:27.994Z,38.13
2022-08-22T09:21:31.946Z,40.97
2022-08-22T09:27:08.673Z,45.83
2022-08-22T09:29:54.557Z,47.85
2022-08-22T09:33:00.917Z,45.85
2022-08-22T09:35:57.163Z,40.65
2022-08-22T09:38:38.795Z,39.88
2022-08-22T09:41:14.882Z,48.10
2022-08-22T09:44:07.639Z,44.53
2022-08-22T09:49:41.916Z,35.08
2022-08-22T09:52:31.956Z,36.60
2022-08-22T09:55:07.963Z,38.67
2022-08-22T09:57:59.634Z,43.78
2022-08-22T10:00:40.603Z,42.15
2022-08-22T10:03:27.093Z,45.20
2022-08-22T10:06:17.857Z,44.85
2022-08-22T10:08:53.883Z,49.53
2022-08-22T10:11:23.867Z,56.35
2022-08-22T10:14:04.963Z,46.42
2022-08-22T10:16:58.654Z,56.88
2022-08-22T10:19:28.396Z,56.80
2022-08-22T10:22:30.205Z,48.50
2022-08-22T10:25:07.508Z,50.20
2022-08-22T10:27:48.854Z,57.55
2022-08-22T10:30:30.224Z,43.97
2022-08-22T10:33:13.354Z,49.67
2022-08-22T10:35:43.616Z,60.53
2022-08-22T10:38:35.266Z,47.50
2022-08-22T10:41:41.542Z,39.05
2022-08-22T10:44:40.612Z,41.90
2022-08-22T10:47:21.230Z,53.78
2022-08-22T10:49:56.641Z,49.22
2022-08-22T10:52:32.045Z,39.78
2022-08-22T10:55:09.987Z,43.75
2022-08-22T10:58:16.503Z,41.20
2022-08-22T11:00:54.272Z,46.47
2022-08-22T11:03:39.842Z,41.70
2022-08-22T11:06:18.287Z,29.48
2022-08-22T11:09:03.838Z,28.38
2022-08-22T11:11:45.850Z,39.13
2022-08-22T11:14:26.759Z,34.97
2022-08-22T11:17:23.632Z,32.75
2022-08-22T11:20:21.380Z,39.30
2022-08-22T11:23:16.488Z,26.50
2022-08-22T11:26:33.550Z,34.45
2022-08-22T11:29:34.016Z,33.92
2022-08-22T11:32:26.104Z,33.45
2022-08-22T11:35:20.981Z,34.87
2022-08-22T11:38:11.113Z,34.95
2022-08-22T11:40:45.576Z,33.88
2022-08-22T11:43:34.956Z,39.55
2022-08-22T11:46:33.741Z,39.05
2022-08-22T11:49:25.601Z,42.97
2022-08-22T11:52:13.053Z,46.72
2022-08-22T11:54:54.623Z,40.97
2022-08-22T11:57:36.004Z,40.83
2022-08-22T12:00:13.135Z,54.97
2022-08-22T12:02:47.442Z,52.60
2022-08-22T12:05:24.623Z,60.50
2022-08-22T12:08:21.153Z,64.95
2022-08-22T12:11:09.415Z,61.33
2022-08-22T12:14:06.087Z,77.50
2022-08-22T12:16:47.380Z,75.63
2022-08-22T12:19:32.764Z,59.08
2022-08-22T12:22:33.734Z,53.63
2022-08-22T12:25:11.950Z,60.53
2022-08-22T12:27:58.059Z,68.97
2022-08-22T12:30:54.715Z,77.47
2022-08-22T12:33:30.706Z,86.72
2022-08-22T12:36:30.601Z,94.45
2022-08-22T12:39:16.268Z,118.25
2022-08-22T12:42:01.044Z,114.97
2022-08-22T12:44:36.716Z,128.70
2022-08-22T12:47:58.228Z,125.15
2022-08-22T12:50:50.504Z,106.85
2022-08-22T12:53:49.028Z,110.20
2022-08-22T12:56:33.736Z,108.20
2022-08-22T12:59:15.365Z,103.47
2022-08-22T13:01:47.991Z,110.25
2022-08-22T13:04:33.456Z,109.35
2022-08-22T13:07:17.380Z,113.38
2022-08-22T13:09:54.532Z,90.07
2022-08-22T13:12:33.111Z,113.05
2022-08-22T13:15:10.769Z,112.90
2022-08-22T13:17:37.913Z,123.60
2022-08-22T13:20:22.208Z,131.40
2022-08-22T13:22:49.389Z,137.25
2022-08-22T13:25:25.815Z,157.98
2022-08-22T13:27:59.222Z,133.00
2022-08-22T13:30:37.375Z,133.82
2022-08-22T13:33:10.276Z,155.25
2022-08-22T13:35:52.726Z,155.50
2022-08-22T13:38:46.366Z,162.35
2022-08-22T13:44:13.996Z,164.70
2022-08-22T13:47:10.810Z,180.80
2022-08-22T13:49:49.142Z,169.25
2022-08-22T13:52:32.645Z,166.45
2022-08-22T13:55:22.830Z,149.95
2022-08-22T13:57:57.858Z,143.73
2022-08-22T14:01:02.641Z,167.38
2022-08-22T14:03:39.607Z,160.18
2022-08-22T14:06:37.581Z,168.00
2022-08-22T14:09:51.321Z,171.05
2022-08-22T14:12:33.614Z,147.00
2022-08-22T14:15:30.582Z,152.38
2022-08-22T14:18:30.327Z,155.38
2022-08-22T14:21:26.105Z,134.52
2022-08-22T14:23:58.591Z,147.02
2022-08-22T14:26:33.175Z,146.13
2022-08-22T14:29:18.660Z,125.10
2022-08-22T14:32:12.441Z,136.52
2022-08-22T14:34:42.733Z,105.03
2022-08-22T14:37:22.140Z,105.50
2022-08-22T14:39:53.891Z,116.82
2022-08-22T14:42:29.361Z,114.43
2022-08-22T14:45:06.809Z,118.03
2022-08-22T14:48:14.305Z,124.93
2022-08-22T14:50:45.780Z,117.97
2022-08-22T14:53:22.273Z,116.05
2022-08-22T14:56:27.827Z,136.35
2022-08-22T14:59:02.478Z,122.85
2022-08-22T15:01:32.782Z,127.35
2022-08-22T15:04:06.647Z,131.20
2022-08-22T15:06:36.551Z,148.30
2022-08-22T15:09:11.023Z,157.50
2022-08-22T15:11:42.408Z,154.93
2022-08-22T15:14:21.317Z,158.68
2022-08-22T15:16:56.371Z,166.73
2022-08-22T15:19:35.416Z,171.98
2022-08-22T15:22:08.524Z,173.95
2022-08-22T15:25:06.951Z,178.13
2022-08-22T15:28:05.252Z,173.07
2022-08-22T15:30:34.880Z,154.25
2022-08-22T15:33:09.616Z,165.05
2022-08-22T15:35:39.213Z,163.32
2022-08-22T15:38:32.368Z,170.40
2022-08-22T15:41:22.080Z,152.25
2022-08-22T15:43:53.744Z,207.13
2022-08-22T15:46:23.307Z,184.55
2022-08-22T15:49:01.875Z,174.25
2022-08-22T15:52:05.298Z,191.50
2022-08-22T15:54:55.095Z,200.00
2022-08-22T15:57:38.928Z,191.13
2022-08-22T16:00:32.626Z,196.55
2022-08-22T16:03:25.713Z,222.32
2022-08-22T16:06:00.036Z,221.30
2022-08-22T16:08:47.044Z,209.57
2022-08-22T16:11:29.541Z,213.38
2022-08-22T16:14:34.276Z,218.95
2022-08-22T16:17:27.227Z,201.27
2022-08-22T16:20:09.879Z,197.38
2022-08-22T16:23:01.457Z,202.43
2022-08-22T16:25:46.480Z,211.85
2022-08-22T16:29:03.840Z,187.70
2022-08-22T16:31:30.611Z,196.77
2022-08-22T16:34:20.726Z,222.77
2022-08-22T16:36:47.805Z,200.65
2022-08-22T16:39:23.592Z,215.30
2022-08-22T16:42:15.974Z,210.55
2022-08-22T16:44:48.186Z,238.85
2022-08-22T16:47:29.613Z,245.18
2022-08-22T16:50:02.524Z,264.55
2022-08-22T16:52:30.029Z,282.50
2022-08-22T16:55:03.350Z,282.27
2022-08-22T16:58:10.173Z,282.25
2022-08-22T17:00:58.040Z,292.88
2022-08-22T17:03:39.786Z,272.17
2022-08-22T17:06:37.136Z,283.23
2022-08-22T17:09:28.792Z,290.77
2022-08-22T17:12:16.308Z,295.95
2022-08-22T17:14:58.192Z,280.17
2022-08-22T17:18:01.990Z,302.13
2022-08-22T17:20:49.416Z,315.70
2022-08-22T17:23:38.609Z,331.90
2022-08-22T17:26:29.981Z,374.40
2022-08-22T17:29:21.942Z,365.35
2022-08-22T17:36:04.269Z,353.35
2022-08-22T17:39:10.864Z,345.45
2022-08-22T17:42:03.272Z,365.65
2022-08-22T17:44:45.076Z,371.13
2022-08-22T17:47:17.611Z,394.15
2022-08-22T17:50:10.676Z,406.40
2022-08-22T17:53:00.875Z,402.58
2022-08-22T17:55:33.927Z,408.73
2022-08-22T17:58:43.190Z,432.02
2022-08-22T18:01:14.560Z,410.50
2022-08-22T18:03:50.150Z,422.95
2022-08-22T18:06:23.993Z,422.42
2022-08-22T18:09:17.080Z,434.88
2022-08-22T18:11:56.433Z,442.58
2022-08-22T18:14:35.248Z,438.17
2022-08-22T18:17:21.720Z,443.52
2022-08-22T18:20:36.454Z,488.85
2022-08-22T18:23:35.594Z,423.77
2022-08-22T18:26:33.633Z,465.30
2022-08-22T18:29:23.632Z,466.10
2022-08-22T18:32:08.753Z,484.45
2022-08-22T18:34:47.205Z,473.60
2022-08-22T18:37:46.287Z,490.02
2022-08-22T18:40:28.920Z,504.77
2022-08-22T18:43:13.249Z,518.05
2022-08-22T18:45:46.150Z,480.30
2022-08-22T18:48:49.483Z,535.20
2022-08-22T18:51:38.405Z,520.35
2022-08-22T18:56:51.554Z,487.85
2022-08-22T18:59:36.249Z,530.08
2022-08-22T19:02:14.616Z,546.10
2022-08-22T19:05:12.453Z,535.33
2022-08-22T19:08:03.163Z,552.17
2022-08-22T19:10:50.063Z,560.33
2022-08-22T19:13:44.273Z,527.13
2022-08-22T19:16:45.613Z,565.97
2022-08-22T19:20:09.884Z,555.75
2022-08-22T19:22:37.819Z,558.53
2022-08-22T19:25:27.202Z,558.60
2022-08-22T19:28:06.343Z,573.92
2022-08-22T19:30:42.870Z,575.05
2022-08-22T19:33:34.202Z,547.83
2022-08-22T19:36:09.646Z,551.42
2022-08-22T19:39:04.345Z,554.58
2022-08-22T19:41:52.532Z,530.58
2022-08-22T19:44:19.324Z,538.10
2022-08-22T19:47:18.237Z,520.35
2022-08-22T19:50:05.577Z,536.78
2022-08-22T19:52:57.820Z,517.97
2022-08-22T19:55:36.862Z,540.58
2022-08-22T19:58:33.250Z,537.15
2022-08-22T20:01:28.600Z,528.92
2022-08-22T20:04:04.795Z,515.78
2022-08-22T20:06:57.942Z,517.47
2022-08-22T20:10:08.979Z,509.70
2022-08-22T20:13:01.886Z,498.08
2022-08-22T20:15:31.474Z,549.63
2022-08-22T20:18:47.266Z,524.20
2022-08-22T20:20:59.411Z,538.67
2022-08-22T20:23:31.567Z,537.05
2022-08-22T20:25:59.723Z,524.72
2022-08-22T20:28:40.761Z,544.80
2022-08-22T20:31:19.708Z,561.25
2022-08-22T20:33:51.299Z,515.40
2022-08-22T20:36:27.801Z,550.55
2022-08-22T20:39:01.776Z,540.88
2022-08-22T20:41:36.677Z,543.85
2022-08-22T20:44:13.983Z,569.17
2022-08-22T20:46:44.032Z,558.60
2022-08-22T20:49:26.348Z,539.97
2022-08-22T20:52:06.147Z,571.90
2022-08-22T20:54:42.062Z,553.65
2022-08-22T20:57:18.248Z,560.22
2022-08-22T20:59:57.657Z,553.58
2022-08-22T21:02:41.412Z,559.65
2022-08-22T21:05:18.569Z,579.45
2022-08-22T21:07:48.399Z,602.03
2022-08-22T21:10:38.519Z,602.30
2022-08-22T21:13:12.227Z,602.30
2022-08-22T21:15:46.822Z,587.08
2022-08-22T21:18:28.238Z,586.97
2022-08-22T21:21:05.084Z,616.20
2022-08-22T21:23:40.635Z,620.55
2022-08-22T21:26:19.737Z,610.47
2022-08-22T21:28:49.554Z,633.83
2022-08-22T21:31:21.933Z,619.40
2022-08-22T21:33:51.655Z,608.47
2022-08-22T21:36:22.583Z,632.42
2022-08-22T21:39:00.861Z,621.85
2022-08-22T21:41:49.132Z,631.75
2022-08-22T21:44:25.148Z,626.60
2022-08-22T21:46:52.506Z,609.63
2022-08-22T21:49:24.633Z,595.03
2022-08-22T21:51:51.893Z,617.60
2022-08-22T21:54:25.789Z,626.88
2022-08-22T21:57:13.735Z,640.70
2022-08-22T21:59:51.124Z,632.25
2022-08-22T22:02:31.214Z,619.85
2022-08-22T22:05:00.653Z,643.28
2022-08-22T22:07:29.391Z,657.30
2022-08-22T22:09:56.261Z,632.75
2022-08-22T22:12:23.623Z,650.88
2022-08-22T22:14:50.797Z,655.65
2022-08-22T22:17:19.189Z,658.05
2022-08-22T22:19:47.065Z,655.60
2022-08-22T22:22:13.771Z,677.78
2022-08-22T22:24:40.602Z,650.78
2022-08-22T22:27:08.183Z,676.30
2022-08-22T22:29:36.089Z,635.08
2022-08-22T22:32:03.222Z,672.15
2022-08-22T22:34:30.015Z,633.40
2022-08-22T22:36:57.096Z,639.70
2022-08-22T22:39:24.813Z,626.42
2022-08-22T22:41:51.904Z,636.03
2022-08-22T22:44:18.788Z,673.47
2022-08-22T22:46:49.039Z,662.75
2022-08-22T22:49:15.844Z,677.33
2022-08-22T22:51:42.693Z,660.65
2022-08-22T22:54:11.253Z,664.83
2022-08-22T22:56:38.294Z,646.63
2022-08-22T22:59:13.649Z,671.47
2022-08-22T23:02:21.914Z,653.28
2022-08-22T23:04:55.415Z,658.92
2022-08-22T23:07:24.454Z,654.53
2022-08-22T23:09:56.108Z,677.42
2022-08-22T23:12:25.843Z,651.85
2022-08-22T23:14:53.292Z,641.25
2022-08-22T23:17:20.098Z,642.78
2022-08-22T23:19:47.741Z,678.45
2022-08-22T23:22:14.638Z,662.85
2022-08-22T23:24:41.648Z,663.20
2022-08-22T23:27:09.841Z,650.38
2022-08-22T23:29:40.851Z,686.85
2022-08-22T23:32:09.374Z,634.60
2022-08-22T23:34:44.029Z,645.58
2022-08-22T23:37:12.028Z,660.85
2022-08-22T23:39:39.050Z,675.92
2022-08-22T23:42:07.613Z,648.15
2022-08-22T23:44:37.255Z,652.05
2022-08-22T23:47:05.862Z,646.78
2022-08-22T23:49:33.591Z,671.08
2022-08-22T23:52:00.977Z,649.83
2022-08-22T23:54:27.863Z,663.20
2022-08-22T23:56:57.996Z,675.15
2022-08-22T23:59:30.508Z,666.75
